createdAt,value
2017-04-10T00:00:44.127Z,0
2017-04-10T00:01:44.227Z,0
2017-04-10T00:02:44.160Z,0
2017-04-10T00:03:44.149Z,0
2017-04-10T00:04:44.213Z,0
2017-04-10T00:05:43.793Z,0
2017-04-10T00:06:43.904Z,0
2017-04-10T00:07:43.897Z,0
2017-04-10T00:08:43.510Z,0
2017-04-10T00:09:43.856Z,0
2017-04-10T00:10:43.867Z,0
2017-04-10T00:11:43.879Z,0
2017-04-10T00:12:43.877Z,0
2017-04-10T00:13:44.453Z,0
2017-04-10T00:14:43.850Z,0
2017-04-10T00:15:44.198Z,0
2017-04-10T00:16:43.875Z,0
2017-04-10T00:17:43.910Z,0
2017-04-10T00:18:43.811Z,0
2017-04-10T00:19:44.249Z,0
2017-04-10T00:20:43.312Z,0
2017-04-10T00:21:44.250Z,0
2017-04-10T00:22:44.253Z,0
2017-04-10T00:23:44.258Z,0
2017-04-10T00:24:44.459Z,0
2017-04-10T00:25:44.322Z,0
2017-04-10T00:26:43.965Z,0
2017-04-10T00:27:43.925Z,0
2017-04-10T00:28:43.980Z,0
2017-04-10T00:29:43.978Z,0
2017-04-10T00:30:44.296Z,0
2017-04-10T00:31:44.032Z,0
2017-04-10T00:32:43.947Z,0
2017-04-10T00:33:43.954Z,0
2017-04-10T00:34:44.055Z,0
2017-04-10T00:35:43.962Z,0
2017-04-10T00:36:44.017Z,0
2017-04-10T00:37:44.344Z,0
2017-04-10T00:38:44.094Z,0
2017-04-10T00:39:44.302Z,0
2017-04-10T00:40:44.357Z,0
2017-04-10T00:41:44.363Z,0
2017-04-10T00:42:44.378Z,0
2017-04-10T00:43:44.431Z,0
2017-04-10T00:44:44.014Z,0
2017-04-10T00:45:44.434Z,0
2017-04-10T00:46:43.707Z,0
2017-04-10T00:47:44.402Z,0
2017-04-10T00:48:44.408Z,0
2017-04-10T00:49:44.363Z,0
2017-04-10T00:50:44.514Z,0
2017-04-10T00:51:44.471Z,0
2017-04-10T00:52:43.747Z,0
2017-04-10T00:53:44.394Z,0
2017-04-10T00:54:44.394Z,0
2017-04-10T00:55:44.441Z,0
2017-04-10T00:56:44.400Z,0
2017-04-10T00:57:44.190Z,0
2017-04-10T00:58:44.418Z,0
2017-04-10T00:59:44.415Z,0
2017-04-10T01:00:44.211Z,0
2017-04-10T01:01:44.117Z,0
2017-04-10T01:02:44.179Z,0
2017-04-10T01:03:43.812Z,0
2017-04-10T01:04:45.352Z,0
2017-04-10T01:05:43.828Z,0
2017-04-10T01:06:44.509Z,0
2017-04-10T01:07:44.207Z,0
2017-04-10T01:08:44.210Z,0
2017-04-10T01:09:44.211Z,0
2017-04-10T01:10:44.174Z,0
2017-04-10T01:11:44.177Z,0
2017-04-10T01:12:44.237Z,0
2017-04-10T01:13:44.197Z,0
2017-04-10T01:14:44.202Z,0
2017-04-10T01:15:44.298Z,0
2017-04-10T01:16:44.569Z,0
2017-04-10T01:17:44.224Z,0
2017-04-10T01:18:44.722Z,0
2017-04-10T01:19:44.538Z,0
2017-04-10T01:20:44.595Z,0
2017-04-10T01:21:44.330Z,0
2017-04-10T01:22:44.606Z,0
2017-04-10T01:23:44.665Z,0
2017-04-10T01:24:44.619Z,0
2017-04-10T01:25:44.573Z,0
2017-04-10T01:26:44.575Z,0
2017-04-10T01:27:44.616Z,0
2017-04-10T01:28:44.691Z,0
2017-04-10T01:29:44.598Z,0
2017-04-10T01:30:44.286Z,0
2017-04-10T01:31:44.394Z,0
2017-04-10T01:32:44.357Z,0
2017-04-10T01:33:43.833Z,0
2017-04-10T01:34:44.730Z,0
2017-04-10T01:35:44.420Z,0
2017-04-10T01:36:44.637Z,0
2017-04-10T01:37:44.339Z,0
2017-04-10T01:38:44.388Z,0
2017-04-10T01:39:44.659Z,0
2017-04-10T01:40:44.712Z,0
2017-04-10T01:41:44.781Z,0
2017-04-10T01:42:44.503Z,0
2017-04-10T01:43:44.682Z,0
2017-04-10T01:44:44.102Z,0
2017-04-10T01:45:44.528Z,0
2017-04-10T01:46:44.749Z,0
2017-04-10T01:47:44.388Z,0
2017-04-10T01:48:44.710Z,0
2017-04-10T01:49:44.085Z,0
2017-04-10T01:50:44.774Z,0
2017-04-10T01:51:44.830Z,0
2017-04-10T01:52:44.781Z,0
2017-04-10T01:53:44.733Z,0
2017-04-10T01:54:44.677Z,0
2017-04-10T01:55:44.168Z,0
2017-04-10T01:56:44.493Z,0
2017-04-10T01:57:44.441Z,0
2017-04-10T01:58:44.815Z,0
2017-04-10T01:59:44.510Z,0
2017-04-10T02:00:44.827Z,0
2017-04-10T02:01:44.465Z,0
2017-04-10T02:02:44.828Z,0
2017-04-10T02:03:44.530Z,0
2017-04-10T02:04:44.172Z,0
2017-04-10T02:05:44.854Z,0
2017-04-10T02:06:44.816Z,0
2017-04-10T02:07:44.923Z,0
2017-04-10T02:08:44.559Z,0
2017-04-10T02:09:44.819Z,0
2017-04-10T02:10:44.621Z,0
2017-04-10T02:11:44.211Z,0
2017-04-10T02:12:44.549Z,0
2017-04-10T02:13:44.926Z,0
2017-04-10T02:14:44.920Z,0
2017-04-10T02:15:44.701Z,0
2017-04-10T02:16:44.885Z,0
2017-04-10T02:17:44.885Z,0
2017-04-10T02:18:44.585Z,0
2017-04-10T02:19:44.992Z,0
2017-04-10T02:20:44.581Z,0
2017-04-10T02:21:44.623Z,0
2017-04-10T02:22:44.645Z,0
2017-04-10T02:23:44.916Z,0
2017-04-10T02:24:44.924Z,0
2017-04-10T02:25:44.928Z,0
2017-04-10T02:26:44.723Z,0
2017-04-10T02:27:44.942Z,0
2017-04-10T02:28:45.050Z,0
2017-04-10T02:29:44.951Z,0
2017-04-10T02:30:45.054Z,0
2017-04-10T02:31:44.698Z,0
2017-04-10T02:32:44.966Z,0
2017-04-10T02:33:44.704Z,0
2017-04-10T02:34:45.025Z,0
2017-04-10T02:35:44.766Z,0
2017-04-10T02:36:44.996Z,0
2017-04-10T02:37:44.994Z,0
2017-04-10T02:38:44.783Z,0
2017-04-10T02:39:45.052Z,0
2017-04-10T02:40:44.746Z,0
2017-04-10T02:41:45.116Z,0
2017-04-10T02:42:44.406Z,0
2017-04-10T02:43:45.134Z,0
2017-04-10T02:44:45.089Z,0
2017-04-10T02:45:46.041Z,0
2017-04-10T02:46:45.101Z,0
2017-04-10T02:47:44.826Z,0
2017-04-10T02:48:44.849Z,0
2017-04-10T02:49:44.751Z,0
2017-04-10T02:50:44.802Z,0
2017-04-10T02:51:45.078Z,0
2017-04-10T02:52:45.078Z,0
2017-04-10T02:53:45.189Z,0
2017-04-10T02:54:45.241Z,0
2017-04-10T02:55:44.887Z,0
2017-04-10T02:56:44.790Z,0
2017-04-10T02:57:45.107Z,0
2017-04-10T02:58:44.803Z,0
2017-04-10T02:59:45.171Z,0
2017-04-10T03:00:44.866Z,0
2017-04-10T03:01:45.130Z,0
2017-04-10T03:02:44.570Z,0
2017-04-10T03:03:44.937Z,0
2017-04-10T03:04:44.838Z,0
2017-04-10T03:05:44.530Z,0
2017-04-10T03:06:44.851Z,0
2017-04-10T03:07:45.058Z,0
2017-04-10T03:08:45.236Z,0
2017-04-10T03:09:44.937Z,0
2017-04-10T03:10:44.977Z,0
2017-04-10T03:11:45.026Z,0
2017-04-10T03:12:44.979Z,0
2017-04-10T03:13:45.750Z,0
2017-04-10T03:14:44.889Z,0
2017-04-10T03:15:45.219Z,0
2017-04-10T03:16:45.318Z,0
2017-04-10T03:17:45.280Z,0
2017-04-10T03:18:45.283Z,0
2017-04-10T03:19:44.924Z,0
2017-04-10T03:20:44.989Z,0
2017-04-10T03:21:45.300Z,0
2017-04-10T03:22:45.262Z,0
2017-04-10T03:23:45.321Z,0
2017-04-10T03:24:44.950Z,0
2017-04-10T03:25:45.014Z,0
2017-04-10T03:26:45.331Z,0
2017-04-10T03:27:45.132Z,0
2017-04-10T03:28:44.716Z,0
2017-04-10T03:29:45.300Z,0
2017-04-10T03:30:45.011Z,0
2017-04-10T03:31:45.043Z,0
2017-04-10T03:32:45.415Z,0
2017-04-10T03:33:45.216Z,0
2017-04-10T03:34:45.330Z,0
2017-04-10T03:35:44.807Z,0
2017-04-10T03:36:45.385Z,0
2017-04-10T03:37:45.093Z,0
2017-04-10T03:38:45.359Z,0
2017-04-10T03:39:45.412Z,0
2017-04-10T03:40:45.360Z,0
2017-04-10T03:41:45.104Z,0
2017-04-10T03:42:45.421Z,0
2017-04-10T03:43:45.479Z,0
2017-04-10T03:44:45.071Z,0
2017-04-10T03:45:45.459Z,0
2017-04-10T03:46:45.477Z,0
2017-04-10T03:47:45.399Z,0
2017-04-10T03:48:44.830Z,0
2017-04-10T03:49:45.470Z,0
2017-04-10T03:50:45.155Z,0
2017-04-10T03:51:45.577Z,0
2017-04-10T03:52:45.118Z,0
2017-04-10T03:53:45.433Z,0
2017-04-10T03:54:45.491Z,0
2017-04-10T03:55:45.494Z,0
2017-04-10T03:56:45.551Z,0
2017-04-10T03:57:45.140Z,0
2017-04-10T03:58:44.893Z,0
2017-04-10T03:59:45.573Z,0
2017-04-10T04:00:45.528Z,0
2017-04-10T04:01:44.905Z,0
2017-04-10T04:02:45.492Z,0
2017-04-10T04:03:45.305Z,0
2017-04-10T04:04:44.872Z,0
2017-04-10T04:05:45.558Z,0
2017-04-10T04:06:45.864Z,0
2017-04-10T04:07:45.203Z,0
2017-04-10T04:08:45.206Z,0
2017-04-10T04:09:45.576Z,0
2017-04-10T04:10:45.237Z,0
2017-04-10T04:11:45.274Z,0
2017-04-10T04:12:45.123Z,0
2017-04-10T04:13:45.548Z,0
2017-04-10T04:14:45.300Z,0
2017-04-10T04:15:45.560Z,0
2017-04-10T04:16:45.253Z,0
2017-04-10T04:17:45.627Z,0
2017-04-10T04:18:45.317Z,0
2017-04-10T04:19:44.954Z,0
2017-04-10T04:20:45.112Z,0
2017-04-10T04:21:45.287Z,0
2017-04-10T04:22:45.604Z,0
2017-04-10T04:23:45.609Z,0
2017-04-10T04:24:45.716Z,0
2017-04-10T04:25:45.622Z,0
2017-04-10T04:26:45.414Z,0
2017-04-10T04:27:45.049Z,0
2017-04-10T04:28:45.742Z,0
2017-04-10T04:29:45.697Z,0
2017-04-10T04:30:45.949Z,0
2017-04-10T04:31:45.750Z,0
2017-04-10T04:32:45.446Z,0
2017-04-10T04:33:47.317Z,0
2017-04-10T04:34:45.674Z,0
2017-04-10T04:35:45.723Z,0
2017-04-10T04:36:45.828Z,0
2017-04-10T04:37:45.423Z,0
2017-04-10T04:38:45.428Z,0
2017-04-10T04:39:45.437Z,0
2017-04-10T04:40:45.444Z,0
2017-04-10T04:41:45.864Z,0
2017-04-10T04:42:45.191Z,0
2017-04-10T04:43:45.511Z,0
2017-04-10T04:44:45.413Z,0
2017-04-10T04:45:45.424Z,0
2017-04-10T04:46:45.840Z,0
2017-04-10T04:47:45.485Z,0
2017-04-10T04:48:45.894Z,0
2017-04-10T04:49:45.813Z,0
2017-04-10T04:50:46.102Z,5
2017-04-10T04:51:45.827Z,5
2017-04-10T04:52:45.463Z,5
2017-04-10T04:53:45.466Z,5
2017-04-10T04:54:45.786Z,5
2017-04-10T04:55:45.215Z,5
2017-04-10T04:56:45.856Z,5
2017-04-10T04:57:44.915Z,5
2017-04-10T04:58:45.914Z,10
2017-04-10T04:59:45.508Z,10
2017-04-10T05:00:45.875Z,10
2017-04-10T05:01:46.618Z,10
2017-04-10T05:02:45.935Z,10
2017-04-10T05:04:00.451Z,10
2017-04-10T05:04:45.846Z,10
2017-04-10T05:05:45.904Z,10
2017-04-10T05:06:45.910Z,10
2017-04-10T05:07:45.866Z,10
2017-04-10T05:08:45.555Z,10
2017-04-10T05:09:45.883Z,15
2017-04-10T05:10:45.669Z,15
2017-04-10T05:11:46.164Z,15
2017-04-10T05:12:45.580Z,15
2017-04-10T05:13:45.978Z,20
2017-04-10T05:14:45.332Z,20
2017-04-10T05:15:46.064Z,20
2017-04-10T05:16:45.604Z,20
2017-04-10T05:17:45.975Z,25
2017-04-10T05:18:45.929Z,25
2017-04-10T05:19:45.939Z,25
2017-04-10T05:20:45.949Z,25
2017-04-10T05:21:45.007Z,30
2017-04-10T05:22:45.062Z,30
2017-04-10T05:23:46.014Z,25
2017-04-10T05:24:45.968Z,25
2017-04-10T05:25:46.028Z,25
2017-04-10T05:26:45.665Z,25
2017-04-10T05:27:46.089Z,25
2017-04-10T05:28:45.780Z,25
2017-04-10T05:29:45.790Z,30
2017-04-10T05:30:45.688Z,30
2017-04-10T05:31:45.388Z,30
2017-04-10T05:32:46.064Z,30
2017-04-10T05:34:00.584Z,35
2017-04-10T05:34:45.713Z,35
2017-04-10T05:35:46.035Z,30
2017-04-10T05:36:46.095Z,30
2017-04-10T05:37:46.094Z,35
2017-04-10T05:38:45.791Z,35
2017-04-10T05:39:46.168Z,35
2017-04-10T05:40:46.069Z,30
2017-04-10T05:41:45.503Z,35
2017-04-10T05:42:46.204Z,35
2017-04-10T05:43:45.816Z,35
2017-04-10T05:44:45.248Z,35
2017-04-10T05:45:46.199Z,45
2017-04-10T05:46:46.149Z,45
2017-04-10T05:47:45.847Z,45
2017-04-10T05:48:46.163Z,40
2017-04-10T05:49:45.858Z,35
2017-04-10T05:50:45.494Z,35
2017-04-10T05:51:46.135Z,40
2017-04-10T05:52:46.137Z,50
2017-04-10T05:53:46.198Z,50
2017-04-10T05:54:45.575Z,45
2017-04-10T05:55:46.159Z,40
2017-04-10T05:56:46.220Z,35
2017-04-10T05:57:46.174Z,35
2017-04-10T05:58:45.860Z,40
2017-04-10T05:59:45.867Z,40
2017-04-10T06:00:45.928Z,40
2017-04-10T06:01:46.351Z,40
2017-04-10T06:02:46.444Z,40
2017-04-10T06:04:00.821Z,40
2017-04-10T06:04:45.997Z,40
2017-04-10T06:05:45.952Z,40
2017-04-10T06:06:45.592Z,40
2017-04-10T06:07:46.281Z,40
2017-04-10T06:08:46.322Z,40
2017-04-10T06:09:46.247Z,40
2017-04-10T06:10:45.991Z,45
2017-04-10T06:11:45.993Z,45
2017-04-10T06:12:46.009Z,45
2017-04-10T06:13:46.322Z,45
2017-04-10T06:14:46.325Z,50
2017-04-10T06:15:46.289Z,50
2017-04-10T06:16:46.388Z,45
2017-04-10T06:17:46.995Z,40
2017-04-10T06:18:45.676Z,40
2017-04-10T06:19:46.045Z,35
2017-04-10T06:20:46.408Z,35
2017-04-10T06:21:46.371Z,30
2017-04-10T06:22:46.424Z,30
2017-04-10T06:23:46.326Z,30
2017-04-10T06:24:46.337Z,30
2017-04-10T06:25:46.348Z,30
2017-04-10T06:26:46.707Z,30
2017-04-10T06:27:46.407Z,30
2017-04-10T06:28:46.146Z,30
2017-04-10T06:29:46.370Z,30
2017-04-10T06:30:46.474Z,30
2017-04-10T06:31:46.379Z,30
2017-04-10T06:32:46.450Z,30
2017-04-10T06:33:46.127Z,25
2017-04-10T06:34:46.395Z,20
2017-04-10T06:35:46.506Z,20
2017-04-10T06:36:46.515Z,20
2017-04-10T06:37:46.156Z,20
2017-04-10T06:38:46.426Z,20
2017-04-10T06:39:46.480Z,20
2017-04-10T06:40:46.175Z,15
2017-04-10T06:41:46.227Z,15
2017-04-10T06:42:46.139Z,20
2017-04-10T06:43:45.877Z,20
2017-04-10T06:44:46.512Z,25
2017-04-10T06:45:46.468Z,20
2017-04-10T06:46:46.573Z,20
2017-04-10T06:47:46.637Z,15
2017-04-10T06:48:45.903Z,15
2017-04-10T06:49:46.181Z,15
2017-04-10T06:50:46.548Z,20
2017-04-10T06:51:46.191Z,20
2017-04-10T06:52:46.006Z,15
2017-04-10T06:53:46.334Z,15
2017-04-10T06:54:46.214Z,15
2017-04-10T06:55:46.530Z,15
2017-04-10T06:56:46.004Z,20
2017-04-10T06:57:46.643Z,20
2017-04-10T06:58:46.326Z,20
2017-04-10T06:59:46.603Z,15
2017-04-10T07:00:46.246Z,15
2017-04-10T07:01:46.247Z,20
2017-04-10T07:02:46.574Z,20
2017-04-10T07:03:45.993Z,25
2017-04-10T07:04:46.683Z,25
2017-04-10T07:05:46.323Z,25
2017-04-10T07:06:46.013Z,25
2017-04-10T07:07:45.659Z,30
2017-04-10T07:08:46.338Z,30
2017-04-10T07:09:46.660Z,30
2017-04-10T07:10:46.720Z,25
2017-04-10T07:11:46.634Z,20
2017-04-10T07:12:46.726Z,20
2017-04-10T07:13:46.689Z,20
2017-04-10T07:14:46.693Z,20
2017-04-10T07:15:46.744Z,20
2017-04-10T07:16:46.441Z,20
2017-04-10T07:17:46.390Z,20
2017-04-10T07:18:46.450Z,15
2017-04-10T07:19:46.354Z,15
2017-04-10T07:20:46.779Z,15
2017-04-10T07:21:46.934Z,15
2017-04-10T07:22:46.434Z,15
2017-04-10T07:23:46.747Z,15
2017-04-10T07:24:46.538Z,15
2017-04-10T07:25:46.081Z,20
2017-04-10T07:26:46.717Z,15
2017-04-10T07:27:46.770Z,15
2017-04-10T07:28:46.406Z,15
2017-04-10T07:29:46.470Z,15
2017-04-10T07:30:46.487Z,15
2017-04-10T07:31:46.845Z,15
2017-04-10T07:32:46.807Z,20
2017-04-10T07:34:01.364Z,20
2017-04-10T07:34:46.866Z,20
2017-04-10T07:35:46.503Z,20
2017-04-10T07:36:46.560Z,25
2017-04-10T07:37:46.859Z,25
2017-04-10T07:38:47.134Z,25
2017-04-10T07:39:47.144Z,25
2017-04-10T07:40:46.590Z,25
2017-04-10T07:41:46.869Z,25
2017-04-10T07:42:46.548Z,25
2017-04-10T07:43:45.923Z,25
2017-04-10T07:44:46.872Z,30
2017-04-10T07:45:46.878Z,35
2017-04-10T07:46:46.525Z,40
2017-04-10T07:47:46.573Z,45
2017-04-10T07:48:46.955Z,45
2017-04-10T07:49:46.906Z,45
2017-04-10T07:50:46.914Z,50
2017-04-10T07:51:46.287Z,55
2017-04-10T07:52:46.979Z,60
2017-04-10T07:53:47.559Z,60
2017-04-10T07:54:46.676Z,60
2017-04-10T07:55:46.625Z,60
2017-04-10T07:56:46.898Z,60
2017-04-10T07:57:46.694Z,60
2017-04-10T07:58:46.911Z,60
2017-04-10T07:59:46.985Z,65
2017-04-10T08:00:46.356Z,70
2017-04-10T08:01:46.723Z,75
2017-04-10T08:02:46.727Z,65
2017-04-10T08:03:47.330Z,55
2017-04-10T08:04:46.736Z,60
2017-04-10T08:05:46.965Z,65
2017-04-10T08:06:46.660Z,70
2017-04-10T08:07:46.444Z,60
2017-04-10T08:08:47.432Z,50
2017-04-10T08:09:46.359Z,45
2017-04-10T08:10:46.730Z,45
2017-04-10T08:11:46.999Z,55
2017-04-10T08:12:46.693Z,55
2017-04-10T08:13:47.062Z,50
2017-04-10T08:14:47.078Z,45
2017-04-10T08:15:47.026Z,40
2017-04-10T08:16:47.033Z,35
2017-04-10T08:17:47.085Z,35
2017-04-10T08:18:46.924Z,35
2017-04-10T08:19:46.787Z,35
2017-04-10T08:20:47.761Z,30
2017-04-10T08:21:46.746Z,30
2017-04-10T08:22:46.809Z,40
2017-04-10T08:23:46.898Z,45
2017-04-10T08:24:47.091Z,30
2017-04-10T08:25:46.515Z,30
2017-04-10T08:26:46.838Z,30
2017-04-10T08:27:46.893Z,30
2017-04-10T08:28:47.210Z,30
2017-04-10T08:29:46.905Z,30
2017-04-10T08:30:46.606Z,35
2017-04-10T08:31:46.872Z,35
2017-04-10T08:32:47.237Z,35
2017-04-10T08:34:01.372Z,35
2017-04-10T08:34:46.841Z,35
2017-04-10T08:35:46.891Z,35
2017-04-10T08:36:46.904Z,35
2017-04-10T08:37:47.223Z,30
2017-04-10T08:38:46.862Z,25
2017-04-10T08:39:47.177Z,25
2017-04-10T08:40:46.873Z,25
2017-04-10T08:41:46.617Z,25
2017-04-10T08:42:47.266Z,25
2017-04-10T08:43:47.307Z,25
2017-04-10T08:44:47.002Z,25
2017-04-10T08:45:46.959Z,25
2017-04-10T08:46:46.911Z,25
2017-04-10T08:47:47.243Z,25
2017-04-10T08:48:47.303Z,25
2017-04-10T08:49:47.604Z,30
2017-04-10T08:50:47.392Z,30
2017-04-10T08:51:46.689Z,30
2017-04-10T08:52:47.056Z,35
2017-04-10T08:53:47.375Z,30
2017-04-10T08:54:47.436Z,30
2017-04-10T08:55:47.028Z,25
2017-04-10T08:56:46.986Z,25
2017-04-10T08:57:47.488Z,25
2017-04-10T08:58:46.997Z,30
2017-04-10T08:59:47.605Z,35
2017-04-10T09:00:47.377Z,35
2017-04-10T09:01:47.430Z,35
2017-04-10T09:02:47.071Z,30
2017-04-10T09:03:47.343Z,25
2017-04-10T09:04:47.354Z,20
2017-04-10T09:05:47.612Z,20
2017-04-10T09:06:46.794Z,20
2017-04-10T09:07:47.521Z,15
2017-04-10T09:08:47.427Z,15
2017-04-10T09:09:46.755Z,15
2017-04-10T09:10:47.497Z,15
2017-04-10T09:11:47.400Z,15
2017-04-10T09:12:46.822Z,15
2017-04-10T09:13:47.507Z,15
2017-04-10T09:14:47.153Z,20
2017-04-10T09:15:47.433Z,20
2017-04-10T09:16:47.432Z,20
2017-04-10T09:17:47.243Z,20
2017-04-10T09:18:47.179Z,20
2017-04-10T09:19:46.873Z,20
2017-04-10T09:20:47.158Z,20
2017-04-10T09:21:47.514Z,20
2017-04-10T09:22:46.983Z,20
2017-04-10T09:23:47.217Z,20
2017-04-10T09:24:47.176Z,20
2017-04-10T09:25:46.967Z,15
2017-04-10T09:26:47.498Z,15
2017-04-10T09:27:47.250Z,15
2017-04-10T09:28:47.663Z,15
2017-04-10T09:29:48.573Z,20
2017-04-10T09:30:47.575Z,20
2017-04-10T09:31:47.270Z,25
2017-04-10T09:32:47.585Z,25
2017-04-10T09:33:47.597Z,35
2017-04-10T09:34:47.027Z,40
2017-04-10T09:35:47.616Z,50
2017-04-10T09:36:47.619Z,65
2017-04-10T09:37:47.621Z,75
2017-04-10T09:38:48.679Z,75
2017-04-10T09:39:47.326Z,70
2017-04-10T09:40:47.066Z,70
2017-04-10T09:41:47.290Z,70
2017-04-10T09:42:47.348Z,75
2017-04-10T09:43:47.715Z,80
2017-04-10T09:44:47.678Z,80
2017-04-10T09:45:47.314Z,75
2017-04-10T09:46:47.697Z,70
2017-04-10T09:47:47.378Z,65
2017-04-10T09:48:47.474Z,65
2017-04-10T09:49:47.705Z,60
2017-04-10T09:50:47.405Z,55
2017-04-10T09:51:47.721Z,50
2017-04-10T09:52:47.828Z,40
2017-04-10T09:53:47.839Z,35
2017-04-10T09:54:47.790Z,30
2017-04-10T09:55:46.906Z,30
2017-04-10T09:56:47.438Z,30
2017-04-10T09:57:47.396Z,30
2017-04-10T09:58:47.717Z,25
2017-04-10T09:59:47.831Z,25
2017-04-10T10:00:46.839Z,30
2017-04-10T10:01:48.352Z,30
2017-04-10T10:02:47.428Z,30
2017-04-10T10:04:01.998Z,25
2017-04-10T10:04:47.547Z,30
2017-04-10T10:05:47.454Z,30
2017-04-10T10:06:47.772Z,30
2017-04-10T10:07:47.467Z,25
2017-04-10T10:08:47.219Z,25
2017-04-10T10:09:48.730Z,25
2017-04-10T10:10:47.174Z,25
2017-04-10T10:11:47.818Z,25
2017-04-10T10:12:47.238Z,30
2017-04-10T10:13:47.703Z,35
2017-04-10T10:14:47.880Z,40
2017-04-10T10:15:47.523Z,40
2017-04-10T10:16:47.530Z,50
2017-04-10T10:17:47.584Z,55
2017-04-10T10:18:47.796Z,60
2017-04-10T10:19:48.700Z,65
2017-04-10T10:20:47.918Z,65
2017-04-10T10:21:47.564Z,70
2017-04-10T10:22:47.935Z,70
2017-04-10T10:23:48.003Z,70
2017-04-10T10:24:47.740Z,65
2017-04-10T10:25:47.955Z,65
2017-04-10T10:26:47.964Z,65
2017-04-10T10:27:48.757Z,65
2017-04-10T10:28:48.029Z,60
2017-04-10T10:29:47.709Z,60
2017-04-10T10:30:47.628Z,60
2017-04-10T10:31:47.422Z,55
2017-04-10T10:32:47.639Z,50
2017-04-10T10:33:48.070Z,50
2017-04-10T10:34:48.068Z,50
2017-04-10T10:35:47.715Z,50
2017-04-10T10:36:48.035Z,50
2017-04-10T10:37:48.045Z,45
2017-04-10T10:38:47.418Z,45
2017-04-10T10:39:47.794Z,45
2017-04-10T10:40:48.062Z,45
2017-04-10T10:41:48.112Z,45
2017-04-10T10:42:48.032Z,40
2017-04-10T10:43:47.138Z,35
2017-04-10T10:44:47.785Z,30
2017-04-10T10:45:48.156Z,35
2017-04-10T10:46:48.378Z,35
2017-04-10T10:47:48.062Z,30
2017-04-10T10:48:47.489Z,25
2017-04-10T10:49:48.162Z,25
2017-04-10T10:50:47.767Z,20
2017-04-10T10:51:47.777Z,20
2017-04-10T10:52:48.153Z,20
2017-04-10T10:53:47.896Z,15
2017-04-10T10:54:48.161Z,15
2017-04-10T10:55:48.207Z,15
2017-04-10T10:56:47.913Z,15
2017-04-10T10:57:49.616Z,15
2017-04-10T10:58:47.874Z,15
